This is the latest recevied weather packets stored in our database for station/object EFTU. If no packets are shown the sender has not sent any weather packets the latest 10 day(s).
| Time | Temp. | Humidity | Pressure | Rain* | Wind** | Luminosity | Snow |
|---|---|---|---|---|---|---|---|
| 1777648022 | 17.78° C | 32% | 1017.2 hPa | - | - | - | - |
| 1777646822 | 18.33° C | 30% | 1017.4 hPa | - | - | - | - |
| 1777645623 | 17.78° C | 32% | 1017.7 hPa | - | - | - | - |
| 1777644422 | 17.22° C | 36% | 1018 hPa | - | - | - | - |
| 1777643222 | 17.78° C | 37% | 1018.2 hPa | - | - | - | - |
| 1777642023 | 18.33° C | 37% | 1018.4 hPa | - | - | - | - |
| 1777640822 | 18.33° C | 38% | 1018.5 hPa | - | - | - | - |
| 1777639622 | 18.89° C | 36% | 1018.7 hPa | - | - | - | - |
| 1777638423 | 18.89° C | 36% | 1019 hPa | - | - | - | - |
| 1777637222 | 18.89° C | 37% | 1019.3 hPa | - | - | - | - |
| 1777636022 | 18.33° C | 37% | 1019.5 hPa | - | - | - | - |
| 1777634822 | 18.89° C | 37% | 1019.8 hPa | - | - | - | - |
| 1777633622 | 17.78° C | 38% | 1019.8 hPa | - | - | - | - |
| 1777632421 | 17.78° C | 36% | 1020 hPa | - | - | - | - |
| 1777631222 | 18.33° C | 37% | 1020.1 hPa | - | - | - | - |
| 1777630021 | 17.78° C | 40% | 1020.3 hPa | - | - | - | - |
| 1777628822 | 16.11° C | 42% | 1020.5 hPa | - | - | - | - |
| 1777627622 | 16.11° C | 44% | 1020.7 hPa | - | - | - | - |
| 1777626421 | 15.56° C | 44% | 1020.9 hPa | - | - | - | - |
| 1777625222 | 15° C | 46% | 1021.1 hPa | - | - | - | - |
| 1777624022 | 15° C | 46% | 1021.2 hPa | - | - | - | - |
| 1777622824 | 14.44° C | 47% | 1021.3 hPa | - | - | - | - |
| 1777621621 | 14.44° C | 49% | 1021.4 hPa | - | - | - | - |
| 1777620421 | 13.89° C | 51% | 1021.5 hPa | - | - | - | - |
| 1777619221 | 12.78° C | 54% | 1021.7 hPa | - | - | - | - |
* Rain since midnight (hover to see other rain measurements)
** Current wind speed in m/s (hover to see current wind gust speed)